sensor_id;sensor_type;location;lat;lon;timestamp;temperature;humidity
8226;DHT22;4154;48.810;9.012;2023-12-20T00:01:26;6.80;99.90
8226;DHT22;4154;48.810;9.012;2023-12-20T00:03:52;6.80;99.90
8226;DHT22;4154;48.810;9.012;2023-12-20T00:06:17;6.80;99.90
8226;DHT22;4154;48.810;9.012;2023-12-20T00:08:43;6.80;99.90
8226;DHT22;4154;48.810;9.012;2023-12-20T00:13:35;6.80;99.90
8226;DHT22;4154;48.810;9.012;2023-12-20T00:16:01;6.80;99.90
8226;DHT22;4154;48.810;9.012;2023-12-20T00:18:26;6.70;99.90
8226;DHT22;4154;48.810;9.012;2023-12-20T00:20:52;6.70;99.90
8226;DHT22;4154;48.810;9.012;2023-12-20T00:23:18;6.70;99.90
8226;DHT22;4154;48.810;9.012;2023-12-20T00:28:09;6.70;99.90
8226;DHT22;4154;48.810;9.012;2023-12-20T00:30:35;6.70;99.90
8226;DHT22;4154;48.810;9.012;2023-12-20T00:33:01;6.70;99.90
8226;DHT22;4154;48.810;9.012;2023-12-20T00:35:27;6.70;99.90
8226;DHT22;4154;48.810;9.012;2023-12-20T00:37:53;6.80;99.90
8226;DHT22;4154;48.810;9.012;2023-12-20T00:42:46;6.70;99.90
8226;DHT22;4154;48.810;9.012;2023-12-20T00:45:12;6.70;99.90
8226;DHT22;4154;48.810;9.012;2023-12-20T00:47:38;6.70;99.90
8226;DHT22;4154;48.810;9.012;2023-12-20T00:50:04;6.70;99.90
8226;DHT22;4154;48.810;9.012;2023-12-20T00:54:56;6.70;99.90
8226;DHT22;4154;48.810;9.012;2023-12-20T00:57:21;6.60;99.90
8226;DHT22;4154;48.810;9.012;2023-12-20T00:59:47;6.70;99.90
8226;DHT22;4154;48.810;9.012;2023-12-20T01:02:13;6.70;99.90
8226;DHT22;4154;48.810;9.012;2023-12-20T01:04:38;6.70;99.90
8226;DHT22;4154;48.810;9.012;2023-12-20T01:07:04;6.70;99.90
8226;DHT22;4154;48.810;9.012;2023-12-20T01:09:29;6.60;99.90
8226;DHT22;4154;48.810;9.012;2023-12-20T01:11:55;6.60;99.90
8226;DHT22;4154;48.810;9.012;2023-12-20T01:14:21;6.60;99.90
8226;DHT22;4154;48.810;9.012;2023-12-20T01:16:47;6.60;99.90
8226;DHT22;4154;48.810;9.012;2023-12-20T01:19:13;7.10;99.90
8226;DHT22;4154;48.810;9.012;2023-12-20T01:21:39;6.60;99.90
8226;DHT22;4154;48.810;9.012;2023-12-20T01:24:05;6.70;99.90
8226;DHT22;4154;48.810;9.012;2023-12-20T01:26:31;6.60;99.90
8226;DHT22;4154;48.810;9.012;2023-12-20T01:28:57;6.70;99.90
8226;DHT22;4154;48.810;9.012;2023-12-20T01:31:22;6.70;99.90
8226;DHT22;4154;48.810;9.012;2023-12-20T01:33:48;6.60;99.90
8226;DHT22;4154;48.810;9.012;2023-12-20T01:36:14;6.70;99.90
8226;DHT22;4154;48.810;9.012;2023-12-20T01:38:40;6.60;99.90
8226;DHT22;4154;48.810;9.012;2023-12-20T01:41:05;6.90;99.90
8226;DHT22;4154;48.810;9.012;2023-12-20T01:43:31;6.60;99.90
8226;DHT22;4154;48.810;9.012;2023-12-20T01:46:00;6.60;99.90
8226;DHT22;4154;48.810;9.012;2023-12-20T01:48:26;6.70;99.90
8226;DHT22;4154;48.810;9.012;2023-12-20T01:50:54;6.60;99.90
8226;DHT22;4154;48.810;9.012;2023-12-20T01:53:21;6.60;99.90
8226;DHT22;4154;48.810;9.012;2023-12-20T01:55:52;6.60;99.90
8226;DHT22;4154;48.810;9.012;2023-12-20T01:58:20;6.60;99.90
8226;DHT22;4154;48.810;9.012;2023-12-20T02:00:47;6.50;99.90
8226;DHT22;4154;48.810;9.012;2023-12-20T02:03:14;6.60;99.90
8226;DHT22;4154;48.810;9.012;2023-12-20T02:05:41;6.50;99.90
8226;DHT22;4154;48.810;9.012;2023-12-20T02:08:07;6.60;99.90
8226;DHT22;4154;48.810;9.012;2023-12-20T02:10:32;6.70;99.90
8226;DHT22;4154;48.810;9.012;2023-12-20T02:12:58;6.80;99.90
8226;DHT22;4154;48.810;9.012;2023-12-20T02:15:24;6.70;99.90
8226;DHT22;4154;48.810;9.012;2023-12-20T02:17:50;6.80;99.90
8226;DHT22;4154;48.810;9.012;2023-12-20T02:22:42;6.80;99.90
8226;DHT22;4154;48.810;9.012;2023-12-20T02:25:08;6.80;99.90
8226;DHT22;4154;48.810;9.012;2023-12-20T02:27:34;6.80;99.90
8226;DHT22;4154;48.810;9.012;2023-12-20T02:30:00;6.80;99.90
8226;DHT22;4154;48.810;9.012;2023-12-20T02:32:26;6.80;99.90
8226;DHT22;4154;48.810;9.012;2023-12-20T02:34:53;6.80;99.90
8226;DHT22;4154;48.810;9.012;2023-12-20T02:37:20;6.80;99.90
8226;DHT22;4154;48.810;9.012;2023-12-20T02:39:45;6.70;99.90
8226;DHT22;4154;48.810;9.012;2023-12-20T02:42:11;6.70;99.90
8226;DHT22;4154;48.810;9.012;2023-12-20T02:44:37;6.80;99.90
8226;DHT22;4154;48.810;9.012;2023-12-20T02:47:03;6.80;99.90
8226;DHT22;4154;48.810;9.012;2023-12-20T02:49:29;6.80;99.90
8226;DHT22;4154;48.810;9.012;2023-12-20T02:51:54;6.80;99.90
8226;DHT22;4154;48.810;9.012;2023-12-20T02:54:20;6.70;99.90
8226;DHT22;4154;48.810;9.012;2023-12-20T02:56:46;6.60;99.90
8226;DHT22;4154;48.810;9.012;2023-12-20T03:01:43;6.50;99.90
8226;DHT22;4154;48.810;9.012;2023-12-20T03:04:11;6.50;99.90
8226;DHT22;4154;48.810;9.012;2023-12-20T03:06:36;6.50;99.90
8226;DHT22;4154;48.810;9.012;2023-12-20T03:09:02;6.40;99.90
8226;DHT22;4154;48.810;9.012;2023-12-20T03:11:28;6.40;99.90
8226;DHT22;4154;48.810;9.012;2023-12-20T03:13:55;6.30;99.90
8226;DHT22;4154;48.810;9.012;2023-12-20T03:16:21;6.20;99.90
8226;DHT22;4154;48.810;9.012;2023-12-20T03:18:47;6.20;99.90
8226;DHT22;4154;48.810;9.012;2023-12-20T03:21:12;6.30;99.90
8226;DHT22;4154;48.810;9.012;2023-12-20T03:23:38;6.30;99.90
8226;DHT22;4154;48.810;9.012;2023-12-20T03:26:07;6.30;99.90
8226;DHT22;4154;48.810;9.012;2023-12-20T03:28:33;6.60;99.90
8226;DHT22;4154;48.810;9.012;2023-12-20T03:30:58;6.20;99.90
8226;DHT22;4154;48.810;9.012;2023-12-20T03:38:16;6.20;99.90
8226;DHT22;4154;48.810;9.012;2023-12-20T03:40:42;6.10;99.90
8226;DHT22;4154;48.810;9.012;2023-12-20T03:43:08;6.10;99.90
8226;DHT22;4154;48.810;9.012;2023-12-20T03:45:33;6.20;99.90
8226;DHT22;4154;48.810;9.012;2023-12-20T03:47:59;6.10;99.90
8226;DHT22;4154;48.810;9.012;2023-12-20T03:50:26;6.00;99.90
8226;DHT22;4154;48.810;9.012;2023-12-20T03:52:52;6.10;99.90
8226;DHT22;4154;48.810;9.012;2023-12-20T03:55:18;5.90;99.90
8226;DHT22;4154;48.810;9.012;2023-12-20T03:57:44;5.90;99.90
8226;DHT22;4154;48.810;9.012;2023-12-20T04:00:10;5.90;99.90
8226;DHT22;4154;48.810;9.012;2023-12-20T04:02:40;5.80;99.90
8226;DHT22;4154;48.810;9.012;2023-12-20T04:05:08;5.90;99.90
8226;DHT22;4154;48.810;9.012;2023-12-20T04:07:36;5.80;99.90
8226;DHT22;4154;48.810;9.012;2023-12-20T04:10:02;5.80;99.90
8226;DHT22;4154;48.810;9.012;2023-12-20T04:12:29;5.80;99.90
8226;DHT22;4154;48.810;9.012;2023-12-20T04:14:55;5.80;99.90
8226;DHT22;4154;48.810;9.012;2023-12-20T04:17:22;5.80;99.90
8226;DHT22;4154;48.810;9.012;2023-12-20T04:19:51;5.80;99.90
8226;DHT22;4154;48.810;9.012;2023-12-20T04:22:17;5.80;99.90
8226;DHT22;4154;48.810;9.012;2023-12-20T04:24:44;5.90;99.90
8226;DHT22;4154;48.810;9.012;2023-12-20T04:29:36;6.00;99.90
8226;DHT22;4154;48.810;9.012;2023-12-20T04:32:02;5.90;99.90
8226;DHT22;4154;48.810;9.012;2023-12-20T04:34:28;5.90;99.90
8226;DHT22;4154;48.810;9.012;2023-12-20T04:36:53;5.90;99.90
8226;DHT22;4154;48.810;9.012;2023-12-20T04:39:19;5.80;99.90
8226;DHT22;4154;48.810;9.012;2023-12-20T04:41:45;5.90;99.90
8226;DHT22;4154;48.810;9.012;2023-12-20T04:44:13;5.90;99.90
8226;DHT22;4154;48.810;9.012;2023-12-20T04:46:39;5.60;99.90
8226;DHT22;4154;48.810;9.012;2023-12-20T04:51:33;6.00;99.90
8226;DHT22;4154;48.810;9.012;2023-12-20T04:54:00;6.00;99.90
8226;DHT22;4154;48.810;9.012;2023-12-20T04:56:26;5.80;99.90
8226;DHT22;4154;48.810;9.012;2023-12-20T04:58:52;6.00;99.90
8226;DHT22;4154;48.810;9.012;2023-12-20T05:01:18;6.00;99.90
8226;DHT22;4154;48.810;9.012;2023-12-20T05:03:43;6.00;99.90
8226;DHT22;4154;48.810;9.012;2023-12-20T05:06:10;6.00;99.90
8226;DHT22;4154;48.810;9.012;2023-12-20T05:08:35;5.90;99.90
8226;DHT22;4154;48.810;9.012;2023-12-20T05:11:02;5.90;99.90
8226;DHT22;4154;48.810;9.012;2023-12-20T05:13:28;5.90;99.90
8226;DHT22;4154;48.810;9.012;2023-12-20T05:15:54;6.00;99.90
8226;DHT22;4154;48.810;9.012;2023-12-20T05:18:20;6.00;99.90
8226;DHT22;4154;48.810;9.012;2023-12-20T05:20:47;6.00;99.90
8226;DHT22;4154;48.810;9.012;2023-12-20T05:23:12;6.00;99.90
8226;DHT22;4154;48.810;9.012;2023-12-20T05:25:38;6.00;99.90
8226;DHT22;4154;48.810;9.012;2023-12-20T05:28:04;6.10;99.90
8226;DHT22;4154;48.810;9.012;2023-12-20T05:30:30;6.10;99.90
8226;DHT22;4154;48.810;9.012;2023-12-20T05:32:56;6.10;99.90
8226;DHT22;4154;48.810;9.012;2023-12-20T05:35:21;6.20;99.90
8226;DHT22;4154;48.810;9.012;2023-12-20T05:37:49;6.20;99.90
8226;DHT22;4154;48.810;9.012;2023-12-20T05:40:15;6.20;99.90
8226;DHT22;4154;48.810;9.012;2023-12-20T05:42:40;6.30;99.90
8226;DHT22;4154;48.810;9.012;2023-12-20T05:45:06;6.30;99.90
8226;DHT22;4154;48.810;9.012;2023-12-20T05:47:32;6.30;99.90
8226;DHT22;4154;48.810;9.012;2023-12-20T05:49:58;6.30;99.90
8226;DHT22;4154;48.810;9.012;2023-12-20T05:54:50;6.30;99.90
8226;DHT22;4154;48.810;9.012;2023-12-20T05:57:15;6.30;99.90
8226;DHT22;4154;48.810;9.012;2023-12-20T05:59:41;6.20;99.90
8226;DHT22;4154;48.810;9.012;2023-12-20T06:02:07;6.30;99.90
8226;DHT22;4154;48.810;9.012;2023-12-20T06:04:32;6.30;99.90
8226;DHT22;4154;48.810;9.012;2023-12-20T06:06:58;6.30;99.90
8226;DHT22;4154;48.810;9.012;2023-12-20T06:09:26;6.30;99.90
8226;DHT22;4154;48.810;9.012;2023-12-20T06:11:52;6.30;99.90
8226;DHT22;4154;48.810;9.012;2023-12-20T06:14:18;6.30;99.90
8226;DHT22;4154;48.810;9.012;2023-12-20T06:16:45;6.30;99.90
8226;DHT22;4154;48.810;9.012;2023-12-20T06:19:11;6.30;99.90
8226;DHT22;4154;48.810;9.012;2023-12-20T06:21:36;6.30;99.90
8226;DHT22;4154;48.810;9.012;2023-12-20T06:24:02;6.30;99.90
8226;DHT22;4154;48.810;9.012;2023-12-20T06:26:28;6.50;99.90
8226;DHT22;4154;48.810;9.012;2023-12-20T06:28:53;6.40;99.90
8226;DHT22;4154;48.810;9.012;2023-12-20T06:31:19;6.40;99.90
8226;DHT22;4154;48.810;9.012;2023-12-20T06:33:45;6.40;99.90
8226;DHT22;4154;48.810;9.012;2023-12-20T06:36:14;6.40;99.90
8226;DHT22;4154;48.810;9.012;2023-12-20T06:38:39;6.30;99.90
8226;DHT22;4154;48.810;9.012;2023-12-20T06:41:06;6.30;99.90
8226;DHT22;4154;48.810;9.012;2023-12-20T06:46:00;6.30;99.90
8226;DHT22;4154;48.810;9.012;2023-12-20T06:48:26;6.30;99.90
8226;DHT22;4154;48.810;9.012;2023-12-20T06:50:51;6.30;99.90
8226;DHT22;4154;48.810;9.012;2023-12-20T06:53:17;6.30;99.90
8226;DHT22;4154;48.810;9.012;2023-12-20T06:55:43;6.10;99.90
8226;DHT22;4154;48.810;9.012;2023-12-20T06:58:09;6.00;99.90
8226;DHT22;4154;48.810;9.012;2023-12-20T07:00:34;6.20;99.90
8226;DHT22;4154;48.810;9.012;2023-12-20T07:03:00;6.20;99.90
8226;DHT22;4154;48.810;9.012;2023-12-20T07:05:26;6.20;99.90
8226;DHT22;4154;48.810;9.012;2023-12-20T07:07:52;6.20;99.90
8226;DHT22;4154;48.810;9.012;2023-12-20T07:10:17;6.20;99.90
8226;DHT22;4154;48.810;9.012;2023-12-20T07:12:43;6.00;99.90
8226;DHT22;4154;48.810;9.012;2023-12-20T07:17:35;6.10;99.90
8226;DHT22;4154;48.810;9.012;2023-12-20T07:20:01;6.00;99.90
8226;DHT22;4154;48.810;9.012;2023-12-20T07:22:30;5.90;99.90
8226;DHT22;4154;48.810;9.012;2023-12-20T07:24:59;5.90;99.90
8226;DHT22;4154;48.810;9.012;2023-12-20T07:27:26;5.90;99.90
8226;DHT22;4154;48.810;9.012;2023-12-20T07:32:18;5.90;99.90
8226;DHT22;4154;48.810;9.012;2023-12-20T07:34:44;5.90;99.90
8226;DHT22;4154;48.810;9.012;2023-12-20T07:37:10;5.90;99.90
8226;DHT22;4154;48.810;9.012;2023-12-20T07:39:37;5.80;99.90
8226;DHT22;4154;48.810;9.012;2023-12-20T07:42:05;5.80;99.90
8226;DHT22;4154;48.810;9.012;2023-12-20T07:44:31;5.80;99.90
8226;DHT22;4154;48.810;9.012;2023-12-20T07:46:57;5.80;99.90
8226;DHT22;4154;48.810;9.012;2023-12-20T07:54:15;5.60;99.90
8226;DHT22;4154;48.810;9.012;2023-12-20T07:59:07;5.60;99.90
8226;DHT22;4154;48.810;9.012;2023-12-20T08:01:33;5.50;99.90
8226;DHT22;4154;48.810;9.012;2023-12-20T08:03:59;5.50;99.90
8226;DHT22;4154;48.810;9.012;2023-12-20T08:06:24;5.30;99.90
8226;DHT22;4154;48.810;9.012;2023-12-20T08:08:50;5.40;99.90
8226;DHT22;4154;48.810;9.012;2023-12-20T08:11:16;5.50;99.90
8226;DHT22;4154;48.810;9.012;2023-12-20T08:13:41;5.50;99.90
8226;DHT22;4154;48.810;9.012;2023-12-20T08:16:07;5.50;99.90
8226;DHT22;4154;48.810;9.012;2023-12-20T08:18:33;5.50;99.90
8226;DHT22;4154;48.810;9.012;2023-12-20T08:20:59;5.50;99.90
8226;DHT22;4154;48.810;9.012;2023-12-20T08:23:25;5.50;99.90
8226;DHT22;4154;48.810;9.012;2023-12-20T08:25:51;5.50;99.90
8226;DHT22;4154;48.810;9.012;2023-12-20T08:28:16;5.40;99.90
8226;DHT22;4154;48.810;9.012;2023-12-20T08:30:42;5.40;99.90
8226;DHT22;4154;48.810;9.012;2023-12-20T08:33:08;5.40;99.90
8226;DHT22;4154;48.810;9.012;2023-12-20T08:35:40;5.30;99.90
8226;DHT22;4154;48.810;9.012;2023-12-20T08:40:32;5.30;99.90
8226;DHT22;4154;48.810;9.012;2023-12-20T08:42:58;5.30;99.90
8226;DHT22;4154;48.810;9.012;2023-12-20T08:45:24;5.30;99.90
8226;DHT22;4154;48.810;9.012;2023-12-20T08:47:50;5.30;99.90
8226;DHT22;4154;48.810;9.012;2023-12-20T08:50:15;5.30;99.90
8226;DHT22;4154;48.810;9.012;2023-12-20T08:52:41;5.40;99.90
8226;DHT22;4154;48.810;9.012;2023-12-20T08:55:07;5.30;99.90
8226;DHT22;4154;48.810;9.012;2023-12-20T08:57:33;5.30;99.90
8226;DHT22;4154;48.810;9.012;2023-12-20T08:59:59;5.30;99.90
8226;DHT22;4154;48.810;9.012;2023-12-20T09:02:25;5.30;99.90
8226;DHT22;4154;48.810;9.012;2023-12-20T09:04:50;5.30;99.90
8226;DHT22;4154;48.810;9.012;2023-12-20T09:07:26;5.30;99.90
8226;DHT22;4154;48.810;9.012;2023-12-20T09:09:53;5.40;99.90
8226;DHT22;4154;48.810;9.012;2023-12-20T09:12:19;5.40;99.90
8226;DHT22;4154;48.810;9.012;2023-12-20T09:14:49;5.40;99.90
8226;DHT22;4154;48.810;9.012;2023-12-20T09:17:16;5.40;99.90
8226;DHT22;4154;48.810;9.012;2023-12-20T09:19:43;5.40;99.90
8226;DHT22;4154;48.810;9.012;2023-12-20T09:22:10;5.40;99.90
8226;DHT22;4154;48.810;9.012;2023-12-20T09:24:36;5.40;99.90
8226;DHT22;4154;48.810;9.012;2023-12-20T09:29:28;5.50;99.90
8226;DHT22;4154;48.810;9.012;2023-12-20T09:31:54;5.50;99.90
8226;DHT22;4154;48.810;9.012;2023-12-20T09:34:20;5.50;99.90
8226;DHT22;4154;48.810;9.012;2023-12-20T09:36:46;5.60;99.90
8226;DHT22;4154;48.810;9.012;2023-12-20T09:39:18;5.60;99.90
8226;DHT22;4154;48.810;9.012;2023-12-20T09:41:45;5.60;99.90
8226;DHT22;4154;48.810;9.012;2023-12-20T09:44:21;5.70;99.90
8226;DHT22;4154;48.810;9.012;2023-12-20T09:46:50;5.70;99.90
8226;DHT22;4154;48.810;9.012;2023-12-20T09:49:19;5.70;99.90
8226;DHT22;4154;48.810;9.012;2023-12-20T09:51:46;5.70;99.90
8226;DHT22;4154;48.810;9.012;2023-12-20T09:54:17;5.60;99.90
8226;DHT22;4154;48.810;9.012;2023-12-20T10:01:41;5.70;99.90
8226;DHT22;4154;48.810;9.012;2023-12-20T10:04:10;5.70;99.90
8226;DHT22;4154;48.810;9.012;2023-12-20T10:06:41;5.70;99.90
8226;DHT22;4154;48.810;9.012;2023-12-20T10:11:36;5.70;99.90
8226;DHT22;4154;48.810;9.012;2023-12-20T10:14:03;5.70;99.90
8226;DHT22;4154;48.810;9.012;2023-12-20T10:16:30;5.80;99.90
8226;DHT22;4154;48.810;9.012;2023-12-20T10:21:25;5.80;99.90
8226;DHT22;4154;48.810;9.012;2023-12-20T10:23:55;5.80;99.90
8226;DHT22;4154;48.810;9.012;2023-12-20T10:26:25;5.80;99.90
8226;DHT22;4154;48.810;9.012;2023-12-20T10:28:56;5.70;99.90
8226;DHT22;4154;48.810;9.012;2023-12-20T10:31:33;5.70;99.90
8226;DHT22;4154;48.810;9.012;2023-12-20T10:34:02;5.70;99.90
8226;DHT22;4154;48.810;9.012;2023-12-20T10:36:31;5.70;99.90
8226;DHT22;4154;48.810;9.012;2023-12-20T10:39:02;5.90;99.90
8226;DHT22;4154;48.810;9.012;2023-12-20T10:41:30;5.80;99.90
8226;DHT22;4154;48.810;9.012;2023-12-20T10:44:04;5.90;99.90
8226;DHT22;4154;48.810;9.012;2023-12-20T10:46:34;5.90;99.90
8226;DHT22;4154;48.810;9.012;2023-12-20T10:49:02;5.90;99.90
8226;DHT22;4154;48.810;9.012;2023-12-20T10:51:29;5.90;99.70
8226;DHT22;4154;48.810;9.012;2023-12-20T10:53:56;6.00;99.90
8226;DHT22;4154;48.810;9.012;2023-12-20T10:56:22;6.00;99.90
8226;DHT22;4154;48.810;9.012;2023-12-20T10:58:51;6.00;99.90
8226;DHT22;4154;48.810;9.012;2023-12-20T11:01:18;6.00;99.50
8226;DHT22;4154;48.810;9.012;2023-12-20T11:03:52;6.00;98.80
8226;DHT22;4154;48.810;9.012;2023-12-20T11:06:43;6.00;99.20
8226;DHT22;4154;48.810;9.012;2023-12-20T11:09:29;6.00;99.10
8226;DHT22;4154;48.810;9.012;2023-12-20T11:12:22;6.00;99.30
8226;DHT22;4154;48.810;9.012;2023-12-20T11:14:55;6.00;99.50
8226;DHT22;4154;48.810;9.012;2023-12-20T11:17:22;6.00;99.60
8226;DHT22;4154;48.810;9.012;2023-12-20T11:22:20;6.10;99.30
8226;DHT22;4154;48.810;9.012;2023-12-20T11:24:47;6.00;99.40
8226;DHT22;4154;48.810;9.012;2023-12-20T11:27:14;6.10;99.30
8226;DHT22;4154;48.810;9.012;2023-12-20T11:29:41;6.10;99.50
8226;DHT22;4154;48.810;9.012;2023-12-20T11:34:58;6.10;98.90
8226;DHT22;4154;48.810;9.012;2023-12-20T11:37:34;6.00;99.10
8226;DHT22;4154;48.810;9.012;2023-12-20T11:40:12;6.00;99.30
8226;DHT22;4154;48.810;9.012;2023-12-20T11:42:40;6.00;98.70
8226;DHT22;4154;48.810;9.012;2023-12-20T11:45:11;6.00;98.60
8226;DHT22;4154;48.810;9.012;2023-12-20T11:52:37;6.00;98.60
8226;DHT22;4154;48.810;9.012;2023-12-20T11:55:03;6.00;98.80
8226;DHT22;4154;48.810;9.012;2023-12-20T11:57:30;6.10;99.90
8226;DHT22;4154;48.810;9.012;2023-12-20T11:59:56;6.10;98.70
8226;DHT22;4154;48.810;9.012;2023-12-20T12:02:22;6.10;98.70
8226;DHT22;4154;48.810;9.012;2023-12-20T12:04:49;6.10;98.90
8226;DHT22;4154;48.810;9.012;2023-12-20T12:07:18;6.10;99.00
8226;DHT22;4154;48.810;9.012;2023-12-20T12:09:44;6.20;99.20
8226;DHT22;4154;48.810;9.012;2023-12-20T12:12:12;6.30;99.20
8226;DHT22;4154;48.810;9.012;2023-12-20T12:14:38;6.30;98.80
8226;DHT22;4154;48.810;9.012;2023-12-20T12:17:13;6.30;98.60
8226;DHT22;4154;48.810;9.012;2023-12-20T12:19:40;6.30;98.80
8226;DHT22;4154;48.810;9.012;2023-12-20T12:22:12;6.30;98.40
8226;DHT22;4154;48.810;9.012;2023-12-20T12:24:43;6.40;98.40
8226;DHT22;4154;48.810;9.012;2023-12-20T12:27:10;6.40;98.20
8226;DHT22;4154;48.810;9.012;2023-12-20T12:29:37;6.40;98.00
8226;DHT22;4154;48.810;9.012;2023-12-20T12:32:07;6.40;98.20
8226;DHT22;4154;48.810;9.012;2023-12-20T12:34:34;6.40;98.30
8226;DHT22;4154;48.810;9.012;2023-12-20T12:37:01;6.40;98.10
8226;DHT22;4154;48.810;9.012;2023-12-20T12:39:29;6.40;97.80
8226;DHT22;4154;48.810;9.012;2023-12-20T12:41:55;6.30;98.00
8226;DHT22;4154;48.810;9.012;2023-12-20T12:44:23;6.40;98.30
8226;DHT22;4154;48.810;9.012;2023-12-20T12:46:52;6.30;98.30
8226;DHT22;4154;48.810;9.012;2023-12-20T12:49:19;6.30;98.10
8226;DHT22;4154;48.810;9.012;2023-12-20T12:51:47;6.30;98.30
8226;DHT22;4154;48.810;9.012;2023-12-20T12:54:12;6.30;98.20
8226;DHT22;4154;48.810;9.012;2023-12-20T12:56:39;6.30;99.90
8226;DHT22;4154;48.810;9.012;2023-12-20T12:59:05;6.30;98.00
8226;DHT22;4154;48.810;9.012;2023-12-20T13:01:31;6.30;99.90
8226;DHT22;4154;48.810;9.012;2023-12-20T13:03:57;6.30;98.10
8226;DHT22;4154;48.810;9.012;2023-12-20T13:06:22;6.30;98.30
8226;DHT22;4154;48.810;9.012;2023-12-20T13:08:49;6.30;98.30
8226;DHT22;4154;48.810;9.012;2023-12-20T13:11:15;6.20;99.90
8226;DHT22;4154;48.810;9.012;2023-12-20T13:13:41;6.20;98.20
8226;DHT22;4154;48.810;9.012;2023-12-20T13:16:07;6.20;98.20
8226;DHT22;4154;48.810;9.012;2023-12-20T13:18:33;6.20;98.00
8226;DHT22;4154;48.810;9.012;2023-12-20T13:20:58;6.20;98.10
8226;DHT22;4154;48.810;9.012;2023-12-20T13:23:24;6.20;97.90
8226;DHT22;4154;48.810;9.012;2023-12-20T13:25:49;6.20;97.90
8226;DHT22;4154;48.810;9.012;2023-12-20T13:28:15;6.20;97.80
8226;DHT22;4154;48.810;9.012;2023-12-20T13:30:41;6.20;97.80
8226;DHT22;4154;48.810;9.012;2023-12-20T13:33:07;6.20;98.00
8226;DHT22;4154;48.810;9.012;2023-12-20T13:35:33;6.20;98.10
8226;DHT22;4154;48.810;9.012;2023-12-20T13:38:00;6.30;98.00
8226;DHT22;4154;48.810;9.012;2023-12-20T13:40:26;6.20;97.90
8226;DHT22;4154;48.810;9.012;2023-12-20T13:42:52;6.30;98.10
8226;DHT22;4154;48.810;9.012;2023-12-20T13:45:17;6.20;98.20
8226;DHT22;4154;48.810;9.012;2023-12-20T13:47:43;6.30;98.50
8226;DHT22;4154;48.810;9.012;2023-12-20T13:50:09;6.20;98.10
8226;DHT22;4154;48.810;9.012;2023-12-20T13:52:35;6.10;98.00
8226;DHT22;4154;48.810;9.012;2023-12-20T13:55:01;6.10;98.00
8226;DHT22;4154;48.810;9.012;2023-12-20T13:57:27;6.00;98.30
8226;DHT22;4154;48.810;9.012;2023-12-20T13:59:55;6.00;98.40
8226;DHT22;4154;48.810;9.012;2023-12-20T14:02:22;6.10;98.40
8226;DHT22;4154;48.810;9.012;2023-12-20T14:04:47;6.00;98.40
8226;DHT22;4154;48.810;9.012;2023-12-20T14:07:13;6.10;98.60
8226;DHT22;4154;48.810;9.012;2023-12-20T14:09:40;6.00;98.70
8226;DHT22;4154;48.810;9.012;2023-12-20T14:12:13;6.00;98.80
8226;DHT22;4154;48.810;9.012;2023-12-20T14:14:39;6.00;98.70
8226;DHT22;4154;48.810;9.012;2023-12-20T14:17:05;6.00;98.70
8226;DHT22;4154;48.810;9.012;2023-12-20T14:19:34;6.00;98.80
8226;DHT22;4154;48.810;9.012;2023-12-20T14:22:00;5.90;98.90
8226;DHT22;4154;48.810;9.012;2023-12-20T14:24:29;6.40;99.90
8226;DHT22;4154;48.810;9.012;2023-12-20T14:26:55;6.00;99.20
8226;DHT22;4154;48.810;9.012;2023-12-20T14:29:21;6.00;99.90
8226;DHT22;4154;48.810;9.012;2023-12-20T14:31:46;6.00;99.10
8226;DHT22;4154;48.810;9.012;2023-12-20T14:36:38;5.90;99.90
8226;DHT22;4154;48.810;9.012;2023-12-20T14:39:04;5.80;99.80
8226;DHT22;4154;48.810;9.012;2023-12-20T14:41:30;5.70;99.90
8226;DHT22;4154;48.810;9.012;2023-12-20T14:43:56;5.80;99.90
8226;DHT22;4154;48.810;9.012;2023-12-20T14:46:22;5.80;99.90
8226;DHT22;4154;48.810;9.012;2023-12-20T14:48:47;5.80;99.90
8226;DHT22;4154;48.810;9.012;2023-12-20T14:51:14;5.80;99.90
8226;DHT22;4154;48.810;9.012;2023-12-20T14:53:40;5.90;99.90
8226;DHT22;4154;48.810;9.012;2023-12-20T14:56:07;5.90;99.90
8226;DHT22;4154;48.810;9.012;2023-12-20T14:58:33;5.90;99.90
8226;DHT22;4154;48.810;9.012;2023-12-20T15:00:59;6.00;99.90
8226;DHT22;4154;48.810;9.012;2023-12-20T15:03:24;6.00;99.90
8226;DHT22;4154;48.810;9.012;2023-12-20T15:05:50;6.00;99.90
8226;DHT22;4154;48.810;9.012;2023-12-20T15:08:16;6.00;99.90
8226;DHT22;4154;48.810;9.012;2023-12-20T15:10:41;6.10;99.70
8226;DHT22;4154;48.810;9.012;2023-12-20T15:13:07;6.00;99.80
8226;DHT22;4154;48.810;9.012;2023-12-20T15:15:33;5.90;99.80
8226;DHT22;4154;48.810;9.012;2023-12-20T15:17:59;5.90;99.80
8226;DHT22;4154;48.810;9.012;2023-12-20T15:20:25;5.90;99.70
8226;DHT22;4154;48.810;9.012;2023-12-20T15:22:51;5.90;99.50
8226;DHT22;4154;48.810;9.012;2023-12-20T15:25:18;5.80;99.50
8226;DHT22;4154;48.810;9.012;2023-12-20T15:30:20;5.80;99.70
8226;DHT22;4154;48.810;9.012;2023-12-20T15:32:47;5.80;99.90
8226;DHT22;4154;48.810;9.012;2023-12-20T15:35:12;5.90;99.90
8226;DHT22;4154;48.810;9.012;2023-12-20T15:37:39;5.90;99.90
8226;DHT22;4154;48.810;9.012;2023-12-20T15:40:08;6.00;99.90
8226;DHT22;4154;48.810;9.012;2023-12-20T15:42:39;6.00;99.90
8226;DHT22;4154;48.810;9.012;2023-12-20T15:45:06;6.00;99.90
8226;DHT22;4154;48.810;9.012;2023-12-20T15:47:34;6.00;99.70
8226;DHT22;4154;48.810;9.012;2023-12-20T15:50:01;6.00;99.90
8226;DHT22;4154;48.810;9.012;2023-12-20T15:52:28;6.00;99.90
8226;DHT22;4154;48.810;9.012;2023-12-20T15:54:54;6.00;99.90
8226;DHT22;4154;48.810;9.012;2023-12-20T15:57:20;6.00;99.90
8226;DHT22;4154;48.810;9.012;2023-12-20T15:59:45;5.90;99.90
8226;DHT22;4154;48.810;9.012;2023-12-20T16:02:11;5.90;99.90
8226;DHT22;4154;48.810;9.012;2023-12-20T16:04:37;5.90;99.90
8226;DHT22;4154;48.810;9.012;2023-12-20T16:07:03;6.00;99.90
8226;DHT22;4154;48.810;9.012;2023-12-20T16:09:29;6.00;99.90
8226;DHT22;4154;48.810;9.012;2023-12-20T16:14:20;6.00;99.90
8226;DHT22;4154;48.810;9.012;2023-12-20T16:16:47;5.90;99.90
8226;DHT22;4154;48.810;9.012;2023-12-20T16:19:13;6.00;99.90
8226;DHT22;4154;48.810;9.012;2023-12-20T16:24:05;6.00;99.90
8226;DHT22;4154;48.810;9.012;2023-12-20T16:26:31;5.60;99.90
8226;DHT22;4154;48.810;9.012;2023-12-20T16:31:23;5.90;99.90
8226;DHT22;4154;48.810;9.012;2023-12-20T16:33:49;5.90;99.90
8226;DHT22;4154;48.810;9.012;2023-12-20T16:36:14;5.80;99.90
8226;DHT22;4154;48.810;9.012;2023-12-20T16:38:40;5.80;99.90
8226;DHT22;4154;48.810;9.012;2023-12-20T16:41:06;5.80;99.90
8226;DHT22;4154;48.810;9.012;2023-12-20T16:45:57;5.80;99.90
8226;DHT22;4154;48.810;9.012;2023-12-20T16:48:23;5.80;99.90
8226;DHT22;4154;48.810;9.012;2023-12-20T16:53:16;5.80;99.90
8226;DHT22;4154;48.810;9.012;2023-12-20T16:58:13;5.70;99.90
8226;DHT22;4154;48.810;9.012;2023-12-20T17:00:39;5.70;99.90
8226;DHT22;4154;48.810;9.012;2023-12-20T17:05:33;5.60;99.90
8226;DHT22;4154;48.810;9.012;2023-12-20T17:10:26;5.60;99.90
8226;DHT22;4154;48.810;9.012;2023-12-20T17:12:51;5.60;99.90
8226;DHT22;4154;48.810;9.012;2023-12-20T17:15:18;5.70;99.90
8226;DHT22;4154;48.810;9.012;2023-12-20T17:17:43;5.60;99.90
8226;DHT22;4154;48.810;9.012;2023-12-20T17:20:09;5.70;99.90
8226;DHT22;4154;48.810;9.012;2023-12-20T17:25:01;5.60;99.90
8226;DHT22;4154;48.810;9.012;2023-12-20T17:27:26;5.70;99.90
8226;DHT22;4154;48.810;9.012;2023-12-20T17:29:52;5.60;99.90
8226;DHT22;4154;48.810;9.012;2023-12-20T17:34:44;5.60;99.90
8226;DHT22;4154;48.810;9.012;2023-12-20T17:37:09;5.60;99.90
8226;DHT22;4154;48.810;9.012;2023-12-20T17:39:35;5.90;99.90
8226;DHT22;4154;48.810;9.012;2023-12-20T17:42:01;5.60;99.90
8226;DHT22;4154;48.810;9.012;2023-12-20T17:44:27;5.80;99.90
8226;DHT22;4154;48.810;9.012;2023-12-20T17:46:53;5.70;99.90
8226;DHT22;4154;48.810;9.012;2023-12-20T17:49:20;5.60;99.90